Big Bear Station Historical Data
Daily Summary for February 12, 2019 Units:  English    Metric   Both
Next Day »
Daily Weekly Monthly Yearly Custom
  High: Low: Average:
Temperature: 49.8 °F 7.2 °F 27.5 °F
Dew Point: 21.4 °F -0.2 °F 8.9 °F
Humidity: 95% 17% 55%
Wind Speed: 5.3mph 0.0mph 1mph
Wind Gust: -999.0mph - -
Wind- - SW
Pressure: 23.53 in 23.43 in -
Precipitation: 0.27 in    
Historical Graphs
 
 
Tabular Data for February 12, 2019
Time Temperature Dew Point Pressure Wind Wind Speed Wind Gust Humidity Rainfall Rate (Hourly)
00:09 11.5 °F 10.1 °F 23.53 in Calm   -999.0 mph 94% 0.00 in
00:24 11.1 °F 9.7 °F 23.53 in Calm   -999.0 mph 94% 0.00 in
00:40 10.6 °F 9.0 °F 23.52 in Calm   -999.0 mph 93% 0.00 in
00:55 10.2 °F 8.6 °F 23.51 in Calm   -999.0 mph 93% 0.00 in
01:10 10.8 °F 9.4 °F 23.51 in Calm   -999.0 mph 94% 0.00 in
01:25 10.0 °F 8.4 °F 23.51 in Calm   -999.0 mph 93% 0.00 in
01:40 9.9 °F 8.3 °F 23.51 in Calm   -999.0 mph 93% 0.00 in
01:56 9.5 °F 7.9 °F 23.51 in Calm   -999.0 mph 93% 0.00 in
02:11 9.7 °F 8.1 °F 23.51 in Calm   -999.0 mph 93% 0.00 in
02:26 9.3 °F 7.7 °F 23.51 in Calm   -999.0 mph 93% 0.00 in
02:41 9.0 °F 7.4 °F 23.51 in Calm   -999.0 mph 93% 0.00 in
02:57 9.0 °F 7.4 °F 23.51 in Calm   -999.0 mph 93% 0.00 in
03:12 8.8 °F 7.2 °F 23.51 in Calm   -999.0 mph 93% 0.00 in
03:27 8.6 °F 7.0 °F 23.51 in Calm   -999.0 mph 93% 0.00 in
03:42 8.2 °F 6.6 °F 23.50 in Calm   -999.0 mph 93% 0.00 in
03:57 8.1 °F 6.5 °F 23.50 in Calm   -999.0 mph 93% 0.00 in
04:13 7.9 °F 6.3 °F 23.50 in Calm   -999.0 mph 93% 0.00 in
04:28 7.7 °F 6.1 °F 23.50 in Calm   -999.0 mph 93% 0.00 in
04:43 7.7 °F 6.1 °F 23.50 in Calm   -999.0 mph 93% 0.00 in
04:58 7.5 °F 5.9 °F 23.50 in Calm   -999.0 mph 93% 0.00 in
05:13 8.1 °F 6.5 °F 23.50 in Calm   -999.0 mph 93% 0.00 in
05:29 7.5 °F 5.9 °F 23.50 in Calm   -999.0 mph 93% 0.00 in
05:44 7.5 °F 5.9 °F 23.49 in Calm   -999.0 mph 93% 0.00 in
05:59 7.5 °F 5.9 °F 23.49 in Calm   -999.0 mph 93% 0.00 in
06:14 7.2 °F 5.6 °F 23.49 in Calm   -999.0 mph 93% 0.00 in
06:29 7.7 °F 6.1 °F 23.50 in Calm   -999.0 mph 93% 0.00 in
06:45 8.4 °F 6.8 °F 23.50 in Calm   -999.0 mph 93% 0.00 in
07:00 8.8 °F 7.2 °F 23.50 in Calm   -999.0 mph 93% 0.00 in
07:15 8.6 °F 7.0 °F 23.51 in Calm   -999.0 mph 93% 0.00 in
07:30 9.3 °F 7.7 °F 23.51 in Calm   -999.0 mph 93% 0.00 in
07:45 9.7 °F 8.1 °F 23.52 in Calm   -999.0 mph 93% 0.00 in
08:01 10.8 °F 8.9 °F 23.52 in Calm   -999.0 mph 92% 0.00 in
08:16 11.8 °F 10.2 °F 23.52 in Calm   -999.0 mph 93% 0.00 in
08:31 12.9 °F 11.5 °F 23.53 in Calm   -999.0 mph 94% 0.00 in
08:46 14.4 °F 13.0 °F 23.53 in Calm   -999.0 mph 94% 0.00 in
09:01 17.8 °F 16.6 °F 23.53 in Calm   -999.0 mph 95% 0.00 in
09:17 20.1 °F 18.9 °F 23.52 in Calm   -999.0 mph 95% 0.00 in
09:32 22.5 °F 20.8 °F 23.52 in Calm   -999.0 mph 93% 0.00 in
09:47 26.1 °F 21.4 °F 23.53 in Calm   -999.0 mph 82% 0.00 in
10:03 31.3 °F 19.0 °F 23.52 in Calm   -999.0 mph 60% 0.00 in
10:18 37.9 °F 6.9 °F 23.52 in Calm   -999.0 mph 27% 0.00 in
10:33 40.5 °F 11.5 °F 23.52 in SSW 1.7 mph -999.0 mph 30% 0.00 in
10:48 43.0 °F 12.9 °F 23.52 in WNW 2.2 mph -999.0 mph 29% 0.00 in
11:03 44.4 °F 6.9 °F 23.52 in East 2.2 mph -999.0 mph 21% 0.00 in
11:19 45.3 °F 6.5 °F 23.52 in NW 1.7 mph -999.0 mph 20% 0.00 in
11:34 44.8 °F 6.1 °F 23.52 in South 1.1 mph -999.0 mph 20% 0.00 in
11:49 45.7 °F 3.3 °F 23.52 in Calm   -999.0 mph 17% 0.00 in
12:04 48.4 °F 10.2 °F 23.51 in Calm   -999.0 mph 21% 0.00 in
12:19 48.6 °F 8.1 °F 23.50 in South 1.7 mph -999.0 mph 19% 0.00 in
12:35 49.6 °F 9.0 °F 23.49 in Calm   -999.0 mph 19% 0.00 in
12:50 49.8 °F 7.9 °F 23.49 in WNW 4.7 mph -999.0 mph 18% 0.00 in
13:05 48.4 °F 8.0 °F 23.48 in NW 3.7 mph -999.0 mph 19% 0.00 in
13:20 47.5 °F 11.5 °F 23.48 in NW 3.2 mph -999.0 mph 23% 0.00 in
13:36 46.9 °F 7.9 °F 23.48 in NNW 4.7 mph -999.0 mph 20% 0.00 in
13:51 46.8 °F 9.9 °F 23.48 in NNW 2.2 mph -999.0 mph 22% 0.00 in
14:06 47.3 °F 10.3 °F 23.47 in Calm   -999.0 mph 22% 0.00 in
14:21 46.8 °F 11.9 °F 23.47 in Calm   -999.0 mph 24% 0.00 in
14:36 45.5 °F 13.4 °F 23.47 in SSE 2.2 mph -999.0 mph 27% 0.00 in
14:52 45.9 °F 12.9 °F 23.47 in Calm   -999.0 mph 26% 0.00 in
15:07 44.1 °F 13.8 °F 23.47 in Calm   -999.0 mph 29% 0.00 in
15:23 42.8 °F 14.2 °F 23.46 in Calm   -999.0 mph 31% 0.00 in
15:38 40.5 °F 14.3 °F 23.46 in NNE 3.2 mph -999.0 mph 34% 0.00 in
15:53 39.9 °F 14.4 °F 23.45 in North 4.2 mph -999.0 mph 35% 0.00 in
16:08 39.2 °F 14.5 °F 23.45 in SW 2.2 mph -999.0 mph 36% 0.00 in
16:23 38.7 °F 14.0 °F 23.45 in Calm   -999.0 mph 36% 0.00 in
16:39 37.8 °F 13.2 °F 23.45 in Calm   -999.0 mph 36% 0.00 in
16:54 37.0 °F 14.3 °F 23.45 in Calm   -999.0 mph 39% 0.00 in
17:09 36.3 °F 13.7 °F 23.45 in Calm   -999.0 mph 39% 0.00 in
17:24 35.8 °F 14.4 °F 23.45 in Calm   -999.0 mph 41% 0.00 in
17:40 34.9 °F 14.6 °F 23.44 in Calm   -999.0 mph 43% 0.00 in
17:55 34.7 °F 13.4 °F 23.45 in NNW 1.7 mph -999.0 mph 41% 0.00 in
18:10 34.7 °F 13.4 °F 23.45 in Calm   -999.0 mph 41% 0.00 in
18:25 34.5 °F 12.1 °F 23.45 in WSW 1.7 mph -999.0 mph 39% 0.00 in
18:40 34.3 °F 11.3 °F 23.44 in Calm   -999.0 mph 38% 0.00 in
18:56 34.5 °F 12.6 °F 23.44 in SSE 2.7 mph -999.0 mph 40% 0.00 in
19:11 34.5 °F 12.1 °F 23.44 in NNE 2.7 mph -999.0 mph 39% 0.00 in
19:26 35.2 °F 8.9 °F 23.44 in WNW 3.2 mph -999.0 mph 33% 0.00 in
19:41 35.8 °F 6.6 °F 23.43 in West 1.7 mph -999.0 mph 29% 0.00 in
19:56 36.1 °F 5.3 °F 23.43 in NNW 5.3 mph -999.0 mph 27% 0.00 in
20:12 35.6 °F 7.9 °F 23.45 in South 2.2 mph -999.0 mph 31% 0.00 in
20:27 35.4 °F 5.5 °F 23.45 in WSW 1.1 mph -999.0 mph 28% 0.00 in
20:43 34.9 °F 5.8 °F 23.45 in SW 1.7 mph -999.0 mph 29% 0.00 in
20:58 34.7 °F 4.1 °F 23.45 in West 2.2 mph -999.0 mph 27% 0.00 in
21:13 35.2 °F 2.0 °F 23.45 in SSE 2.7 mph -999.0 mph 24% 0.00 in
21:29 35.1 °F 3.6 °F 23.46 in Calm   -999.0 mph 26% 0.00 in
21:44 35.2 °F 2.0 °F 23.45 in SSE 1.1 mph -999.0 mph 24% 0.00 in
21:59 35.4 °F 1.2 °F 23.43 in WSW 3.2 mph -999.0 mph 23% 0.00 in
22:14 36.0 °F -0.2 °F 23.43 in WSW 4.2 mph -999.0 mph 21% 0.00 in
22:29 35.4 °F 3.0 °F 23.45 in Calm   -999.0 mph 25% 0.00 in
22:45 34.7 °F 2.4 °F 23.44 in Calm   -999.0 mph 25% 0.00 in
23:01 35.2 °F 1.1 °F 23.44 in WNW 3.7 mph -999.0 mph 23% 0.00 in
23:16 35.2 °F 2.0 °F 23.43 in WSW 2.7 mph -999.0 mph 24% 0.00 in
23:31 35.1 °F 0.0 °F 23.43 in NNE 2.2 mph -999.0 mph 22% 0.00 in
23:46 35.2 °F 0.1 °F 23.43 in South 5.3 mph -999.0 mph 22% 0.00 in
Big Bear CA Weather